sensor_id;sensor_type;location;lat;lon;timestamp;temperature;humidity
62573;DHT22;48626;51.678;5.806;2023-04-24T00:00:04;11.30;99.90
62573;DHT22;48626;51.678;5.806;2023-04-24T00:02:34;11.30;99.90
62573;DHT22;48626;51.678;5.806;2023-04-24T00:05:04;11.30;99.90
62573;DHT22;48626;51.678;5.806;2023-04-24T00:07:31;11.30;99.90
62573;DHT22;48626;51.678;5.806;2023-04-24T00:09:57;11.30;99.90
62573;DHT22;48626;51.678;5.806;2023-04-24T00:12:23;11.30;99.90
62573;DHT22;48626;51.678;5.806;2023-04-24T00:14:49;11.40;99.90
62573;DHT22;48626;51.678;5.806;2023-04-24T00:17:14;11.40;99.90
62573;DHT22;48626;51.678;5.806;2023-04-24T00:19:40;11.40;99.90
62573;DHT22;48626;51.678;5.806;2023-04-24T00:22:06;11.40;99.90
62573;DHT22;48626;51.678;5.806;2023-04-24T00:24:33;11.30;99.90
62573;DHT22;48626;51.678;5.806;2023-04-24T00:26:58;11.30;99.90
62573;DHT22;48626;51.678;5.806;2023-04-24T00:29:26;11.30;99.90
62573;DHT22;48626;51.678;5.806;2023-04-24T00:31:51;11.30;99.90
62573;DHT22;48626;51.678;5.806;2023-04-24T00:34:17;11.30;99.90
62573;DHT22;48626;51.678;5.806;2023-04-24T00:36:43;11.40;99.90
62573;DHT22;48626;51.678;5.806;2023-04-24T00:39:09;11.40;99.90
62573;DHT22;48626;51.678;5.806;2023-04-24T00:41:35;11.40;99.90
62573;DHT22;48626;51.678;5.806;2023-04-24T00:44:01;11.40;99.90
62573;DHT22;48626;51.678;5.806;2023-04-24T00:46:26;11.40;99.90
62573;DHT22;48626;51.678;5.806;2023-04-24T00:48:52;11.40;99.90
62573;DHT22;48626;51.678;5.806;2023-04-24T00:51:18;11.30;99.90
62573;DHT22;48626;51.678;5.806;2023-04-24T00:53:44;11.30;99.90
62573;DHT22;48626;51.678;5.806;2023-04-24T00:56:10;11.30;99.90
62573;DHT22;48626;51.678;5.806;2023-04-24T00:58:36;11.20;99.90
62573;DHT22;48626;51.678;5.806;2023-04-24T01:01:02;11.20;99.90
62573;DHT22;48626;51.678;5.806;2023-04-24T01:03:33;11.20;99.90
62573;DHT22;48626;51.678;5.806;2023-04-24T01:06:03;11.20;99.90
62573;DHT22;48626;51.678;5.806;2023-04-24T01:08:30;11.20;99.90
62573;DHT22;48626;51.678;5.806;2023-04-24T01:10:57;11.20;99.90
62573;DHT22;48626;51.678;5.806;2023-04-24T01:13:23;11.20;99.90
62573;DHT22;48626;51.678;5.806;2023-04-24T01:15:49;11.20;99.90
62573;DHT22;48626;51.678;5.806;2023-04-24T01:18:15;11.10;99.90
62573;DHT22;48626;51.678;5.806;2023-04-24T01:20:43;11.10;99.90
62573;DHT22;48626;51.678;5.806;2023-04-24T01:23:10;11.10;99.90
62573;DHT22;48626;51.678;5.806;2023-04-24T01:25:37;11.10;99.90
62573;DHT22;48626;51.678;5.806;2023-04-24T01:28:03;11.20;99.90
62573;DHT22;48626;51.678;5.806;2023-04-24T01:30:29;11.10;99.90
62573;DHT22;48626;51.678;5.806;2023-04-24T01:32:56;11.10;99.90
62573;DHT22;48626;51.678;5.806;2023-04-24T01:35:22;11.10;99.90
62573;DHT22;48626;51.678;5.806;2023-04-24T01:37:47;11.10;99.90
62573;DHT22;48626;51.678;5.806;2023-04-24T01:40:13;11.10;99.90
62573;DHT22;48626;51.678;5.806;2023-04-24T01:42:41;11.10;99.90
62573;DHT22;48626;51.678;5.806;2023-04-24T01:45:10;11.10;99.90
62573;DHT22;48626;51.678;5.806;2023-04-24T01:47:36;11.10;99.90
62573;DHT22;48626;51.678;5.806;2023-04-24T01:50:04;11.10;99.90
62573;DHT22;48626;51.678;5.806;2023-04-24T01:52:30;11.00;99.90
62573;DHT22;48626;51.678;5.806;2023-04-24T01:55:00;11.00;99.90
62573;DHT22;48626;51.678;5.806;2023-04-24T01:57:25;10.90;99.90
62573;DHT22;48626;51.678;5.806;2023-04-24T01:59:51;10.90;99.90
62573;DHT22;48626;51.678;5.806;2023-04-24T02:02:17;10.80;99.90
62573;DHT22;48626;51.678;5.806;2023-04-24T02:04:43;10.90;99.90
62573;DHT22;48626;51.678;5.806;2023-04-24T02:07:09;10.80;99.90
62573;DHT22;48626;51.678;5.806;2023-04-24T02:09:35;10.80;99.90
62573;DHT22;48626;51.678;5.806;2023-04-24T02:12:00;10.80;99.90
62573;DHT22;48626;51.678;5.806;2023-04-24T02:14:26;10.80;99.90
62573;DHT22;48626;51.678;5.806;2023-04-24T02:16:53;10.70;99.90
62573;DHT22;48626;51.678;5.806;2023-04-24T02:19:19;10.60;99.90
62573;DHT22;48626;51.678;5.806;2023-04-24T02:21:45;10.70;99.90
62573;DHT22;48626;51.678;5.806;2023-04-24T02:24:10;10.70;99.90
62573;DHT22;48626;51.678;5.806;2023-04-24T02:26:36;10.60;99.90
62573;DHT22;48626;51.678;5.806;2023-04-24T02:29:02;10.70;99.90
62573;DHT22;48626;51.678;5.806;2023-04-24T02:31:27;10.70;99.90
62573;DHT22;48626;51.678;5.806;2023-04-24T02:33:53;10.70;99.90
62573;DHT22;48626;51.678;5.806;2023-04-24T02:36:18;10.80;99.90
62573;DHT22;48626;51.678;5.806;2023-04-24T02:38:44;10.70;99.90
62573;DHT22;48626;51.678;5.806;2023-04-24T02:41:10;10.70;99.90
62573;DHT22;48626;51.678;5.806;2023-04-24T02:43:36;10.60;99.90
62573;DHT22;48626;51.678;5.806;2023-04-24T02:46:02;10.60;99.90
62573;DHT22;48626;51.678;5.806;2023-04-24T02:48:28;10.50;99.90
62573;DHT22;48626;51.678;5.806;2023-04-24T02:50:54;10.60;99.90
62573;DHT22;48626;51.678;5.806;2023-04-24T02:53:19;10.60;99.90
62573;DHT22;48626;51.678;5.806;2023-04-24T02:55:45;10.60;99.90
62573;DHT22;48626;51.678;5.806;2023-04-24T02:58:11;10.60;99.90
62573;DHT22;48626;51.678;5.806;2023-04-24T03:00:38;10.60;99.90
62573;DHT22;48626;51.678;5.806;2023-04-24T03:03:05;10.60;99.90
62573;DHT22;48626;51.678;5.806;2023-04-24T03:05:31;10.60;99.90
62573;DHT22;48626;51.678;5.806;2023-04-24T03:07:56;10.60;99.90
62573;DHT22;48626;51.678;5.806;2023-04-24T03:10:22;10.60;99.90
62573;DHT22;48626;51.678;5.806;2023-04-24T03:12:48;10.60;99.90
62573;DHT22;48626;51.678;5.806;2023-04-24T03:15:14;10.60;99.90
62573;DHT22;48626;51.678;5.806;2023-04-24T03:17:40;10.60;99.90
62573;DHT22;48626;51.678;5.806;2023-04-24T03:20:06;10.60;99.90
62573;DHT22;48626;51.678;5.806;2023-04-24T03:22:33;10.60;99.90
62573;DHT22;48626;51.678;5.806;2023-04-24T03:24:59;10.60;99.90
62573;DHT22;48626;51.678;5.806;2023-04-24T03:27:27;10.60;99.90
62573;DHT22;48626;51.678;5.806;2023-04-24T03:29:52;10.60;99.90
62573;DHT22;48626;51.678;5.806;2023-04-24T03:32:21;10.50;99.90
62573;DHT22;48626;51.678;5.806;2023-04-24T03:34:50;10.60;99.90
62573;DHT22;48626;51.678;5.806;2023-04-24T03:37:16;10.60;99.90
62573;DHT22;48626;51.678;5.806;2023-04-24T03:39:42;10.50;99.90
62573;DHT22;48626;51.678;5.806;2023-04-24T03:42:08;10.60;99.90
62573;DHT22;48626;51.678;5.806;2023-04-24T03:44:34;10.50;99.90
62573;DHT22;48626;51.678;5.806;2023-04-24T03:47:00;10.60;99.90
62573;DHT22;48626;51.678;5.806;2023-04-24T03:49:26;10.60;99.90
62573;DHT22;48626;51.678;5.806;2023-04-24T03:51:52;10.60;99.90
62573;DHT22;48626;51.678;5.806;2023-04-24T03:54:21;10.50;99.90
62573;DHT22;48626;51.678;5.806;2023-04-24T03:56:46;10.50;99.90
62573;DHT22;48626;51.678;5.806;2023-04-24T03:59:12;10.50;99.90
62573;DHT22;48626;51.678;5.806;2023-04-24T04:01:38;10.50;99.90
62573;DHT22;48626;51.678;5.806;2023-04-24T04:04:08;10.40;99.90
62573;DHT22;48626;51.678;5.806;2023-04-24T04:06:33;10.50;99.90
62573;DHT22;48626;51.678;5.806;2023-04-24T04:09:00;10.40;99.90
62573;DHT22;48626;51.678;5.806;2023-04-24T04:11:25;10.40;99.90
62573;DHT22;48626;51.678;5.806;2023-04-24T04:13:51;10.40;99.90
62573;DHT22;48626;51.678;5.806;2023-04-24T04:16:17;10.40;99.90
62573;DHT22;48626;51.678;5.806;2023-04-24T04:18:44;10.40;99.90
62573;DHT22;48626;51.678;5.806;2023-04-24T04:21:10;10.30;99.90
62573;DHT22;48626;51.678;5.806;2023-04-24T04:23:35;10.40;99.90
62573;DHT22;48626;51.678;5.806;2023-04-24T04:26:02;10.30;99.90
62573;DHT22;48626;51.678;5.806;2023-04-24T04:28:30;10.30;99.90
62573;DHT22;48626;51.678;5.806;2023-04-24T04:30:57;10.30;99.90
62573;DHT22;48626;51.678;5.806;2023-04-24T04:33:26;10.30;99.90
62573;DHT22;48626;51.678;5.806;2023-04-24T04:35:52;10.30;99.90
62573;DHT22;48626;51.678;5.806;2023-04-24T04:38:18;10.30;99.90
62573;DHT22;48626;51.678;5.806;2023-04-24T04:40:45;10.30;99.90
62573;DHT22;48626;51.678;5.806;2023-04-24T04:43:12;10.20;99.90
62573;DHT22;48626;51.678;5.806;2023-04-24T04:45:39;10.30;99.90
62573;DHT22;48626;51.678;5.806;2023-04-24T04:48:06;10.30;99.90
62573;DHT22;48626;51.678;5.806;2023-04-24T04:50:37;10.20;99.90
62573;DHT22;48626;51.678;5.806;2023-04-24T04:53:03;10.20;99.90
62573;DHT22;48626;51.678;5.806;2023-04-24T04:55:29;10.20;99.90
62573;DHT22;48626;51.678;5.806;2023-04-24T04:57:54;10.10;99.90
62573;DHT22;48626;51.678;5.806;2023-04-24T05:00:22;10.10;99.90
62573;DHT22;48626;51.678;5.806;2023-04-24T05:02:51;10.10;99.90
62573;DHT22;48626;51.678;5.806;2023-04-24T05:05:17;10.10;99.90
62573;DHT22;48626;51.678;5.806;2023-04-24T05:07:44;10.00;99.90
62573;DHT22;48626;51.678;5.806;2023-04-24T05:10:10;10.00;99.90
62573;DHT22;48626;51.678;5.806;2023-04-24T05:12:36;10.00;99.90
62573;DHT22;48626;51.678;5.806;2023-04-24T05:15:02;10.00;99.90
62573;DHT22;48626;51.678;5.806;2023-04-24T05:17:28;10.00;99.90
62573;DHT22;48626;51.678;5.806;2023-04-24T05:19:54;10.00;99.90
62573;DHT22;48626;51.678;5.806;2023-04-24T05:22:20;10.00;99.90
62573;DHT22;48626;51.678;5.806;2023-04-24T05:24:47;10.00;99.90
62573;DHT22;48626;51.678;5.806;2023-04-24T05:27:13;10.00;99.90
62573;DHT22;48626;51.678;5.806;2023-04-24T05:29:39;10.00;99.90
62573;DHT22;48626;51.678;5.806;2023-04-24T05:32:05;10.00;99.90
62573;DHT22;48626;51.678;5.806;2023-04-24T05:34:32;10.00;99.90
62573;DHT22;48626;51.678;5.806;2023-04-24T05:36:58;10.00;99.90
62573;DHT22;48626;51.678;5.806;2023-04-24T05:39:23;10.00;99.90
62573;DHT22;48626;51.678;5.806;2023-04-24T05:41:51;9.90;99.90
62573;DHT22;48626;51.678;5.806;2023-04-24T05:44:16;9.90;99.90
62573;DHT22;48626;51.678;5.806;2023-04-24T05:46:43;9.90;99.90
62573;DHT22;48626;51.678;5.806;2023-04-24T05:49:09;9.90;99.90
62573;DHT22;48626;51.678;5.806;2023-04-24T05:51:34;9.90;99.90
62573;DHT22;48626;51.678;5.806;2023-04-24T05:54:00;9.90;99.90
62573;DHT22;48626;51.678;5.806;2023-04-24T05:56:27;9.90;99.90
62573;DHT22;48626;51.678;5.806;2023-04-24T05:58:53;9.90;99.90
62573;DHT22;48626;51.678;5.806;2023-04-24T06:01:19;9.90;99.90
62573;DHT22;48626;51.678;5.806;2023-04-24T06:03:45;10.00;99.90
62573;DHT22;48626;51.678;5.806;2023-04-24T06:06:11;9.90;99.90
62573;DHT22;48626;51.678;5.806;2023-04-24T06:08:37;9.90;99.90
62573;DHT22;48626;51.678;5.806;2023-04-24T06:11:03;9.90;99.90
62573;DHT22;48626;51.678;5.806;2023-04-24T06:13:29;9.90;99.90
62573;DHT22;48626;51.678;5.806;2023-04-24T06:15:55;10.00;99.90
62573;DHT22;48626;51.678;5.806;2023-04-24T06:18:21;10.00;99.90
62573;DHT22;48626;51.678;5.806;2023-04-24T06:20:47;10.00;99.90
62573;DHT22;48626;51.678;5.806;2023-04-24T06:23:12;10.00;99.90
62573;DHT22;48626;51.678;5.806;2023-04-24T06:25:38;10.00;99.90
62573;DHT22;48626;51.678;5.806;2023-04-24T06:28:04;9.90;99.90
62573;DHT22;48626;51.678;5.806;2023-04-24T06:30:30;9.90;99.90
62573;DHT22;48626;51.678;5.806;2023-04-24T06:32:56;9.90;99.90
62573;DHT22;48626;51.678;5.806;2023-04-24T06:35:22;10.00;99.90
62573;DHT22;48626;51.678;5.806;2023-04-24T06:37:48;9.90;99.90
62573;DHT22;48626;51.678;5.806;2023-04-24T06:40:14;9.90;99.90
62573;DHT22;48626;51.678;5.806;2023-04-24T06:42:40;9.90;99.90
62573;DHT22;48626;51.678;5.806;2023-04-24T06:45:06;9.80;99.90
62573;DHT22;48626;51.678;5.806;2023-04-24T06:47:32;9.80;99.90
62573;DHT22;48626;51.678;5.806;2023-04-24T06:49:58;9.80;99.90
62573;DHT22;48626;51.678;5.806;2023-04-24T06:52:24;9.80;99.90
62573;DHT22;48626;51.678;5.806;2023-04-24T06:54:50;9.80;99.90
62573;DHT22;48626;51.678;5.806;2023-04-24T06:57:17;9.80;99.90
62573;DHT22;48626;51.678;5.806;2023-04-24T06:59:42;9.80;99.90
62573;DHT22;48626;51.678;5.806;2023-04-24T07:02:08;9.90;99.90
62573;DHT22;48626;51.678;5.806;2023-04-24T07:04:34;9.90;99.90
62573;DHT22;48626;51.678;5.806;2023-04-24T07:07:00;9.90;99.90
62573;DHT22;48626;51.678;5.806;2023-04-24T07:09:26;9.90;99.90
62573;DHT22;48626;51.678;5.806;2023-04-24T07:11:53;9.90;99.90
62573;DHT22;48626;51.678;5.806;2023-04-24T07:14:19;9.90;99.90
62573;DHT22;48626;51.678;5.806;2023-04-24T07:16:46;9.90;99.90
62573;DHT22;48626;51.678;5.806;2023-04-24T07:19:12;9.90;99.90
62573;DHT22;48626;51.678;5.806;2023-04-24T07:21:38;9.90;99.90
62573;DHT22;48626;51.678;5.806;2023-04-24T07:24:04;9.80;99.90
62573;DHT22;48626;51.678;5.806;2023-04-24T07:26:30;9.80;99.90
62573;DHT22;48626;51.678;5.806;2023-04-24T07:28:56;9.80;99.90
62573;DHT22;48626;51.678;5.806;2023-04-24T07:31:22;9.80;99.90
62573;DHT22;48626;51.678;5.806;2023-04-24T07:33:48;9.80;99.90
62573;DHT22;48626;51.678;5.806;2023-04-24T07:36:15;9.80;99.90
62573;DHT22;48626;51.678;5.806;2023-04-24T07:38:47;9.80;99.90
62573;DHT22;48626;51.678;5.806;2023-04-24T07:41:13;9.70;99.90
62573;DHT22;48626;51.678;5.806;2023-04-24T07:43:39;9.70;99.90
62573;DHT22;48626;51.678;5.806;2023-04-24T07:46:06;9.70;99.90
62573;DHT22;48626;51.678;5.806;2023-04-24T07:48:32;9.70;99.90
62573;DHT22;48626;51.678;5.806;2023-04-24T07:50:58;9.70;99.90
62573;DHT22;48626;51.678;5.806;2023-04-24T07:53:23;9.60;99.90
62573;DHT22;48626;51.678;5.806;2023-04-24T07:55:49;9.50;99.90
62573;DHT22;48626;51.678;5.806;2023-04-24T07:58:14;9.50;99.90
62573;DHT22;48626;51.678;5.806;2023-04-24T08:00:40;9.50;99.90
62573;DHT22;48626;51.678;5.806;2023-04-24T08:03:06;9.50;99.90
62573;DHT22;48626;51.678;5.806;2023-04-24T08:05:32;9.50;99.90
62573;DHT22;48626;51.678;5.806;2023-04-24T08:07:58;9.50;99.90
62573;DHT22;48626;51.678;5.806;2023-04-24T08:10:25;9.50;99.90
62573;DHT22;48626;51.678;5.806;2023-04-24T08:12:51;9.50;99.90
62573;DHT22;48626;51.678;5.806;2023-04-24T08:15:18;9.40;99.90
62573;DHT22;48626;51.678;5.806;2023-04-24T08:17:44;9.40;99.90
62573;DHT22;48626;51.678;5.806;2023-04-24T08:20:10;9.40;99.90
62573;DHT22;48626;51.678;5.806;2023-04-24T08:22:39;9.40;99.90
62573;DHT22;48626;51.678;5.806;2023-04-24T08:25:06;9.40;99.90
62573;DHT22;48626;51.678;5.806;2023-04-24T08:27:32;9.40;99.90
62573;DHT22;48626;51.678;5.806;2023-04-24T08:29:57;9.50;99.90
62573;DHT22;48626;51.678;5.806;2023-04-24T08:32:25;9.50;99.90
62573;DHT22;48626;51.678;5.806;2023-04-24T08:34:58;9.50;99.90
62573;DHT22;48626;51.678;5.806;2023-04-24T08:37:25;9.50;99.90
62573;DHT22;48626;51.678;5.806;2023-04-24T08:39:51;9.50;99.90
62573;DHT22;48626;51.678;5.806;2023-04-24T08:42:18;9.50;99.90
62573;DHT22;48626;51.678;5.806;2023-04-24T08:44:44;9.60;99.90
62573;DHT22;48626;51.678;5.806;2023-04-24T08:47:11;9.50;99.90
62573;DHT22;48626;51.678;5.806;2023-04-24T08:49:38;9.50;99.90
62573;DHT22;48626;51.678;5.806;2023-04-24T08:52:05;9.60;99.90
62573;DHT22;48626;51.678;5.806;2023-04-24T08:54:33;9.70;99.90
62573;DHT22;48626;51.678;5.806;2023-04-24T08:57:00;9.60;99.90
62573;DHT22;48626;51.678;5.806;2023-04-24T08:59:27;9.60;99.90
62573;DHT22;48626;51.678;5.806;2023-04-24T09:01:55;9.70;99.90
62573;DHT22;48626;51.678;5.806;2023-04-24T09:04:22;9.70;99.90
62573;DHT22;48626;51.678;5.806;2023-04-24T09:06:57;9.70;99.90
62573;DHT22;48626;51.678;5.806;2023-04-24T09:09:24;9.70;99.90
62573;DHT22;48626;51.678;5.806;2023-04-24T09:11:50;9.80;99.90
62573;DHT22;48626;51.678;5.806;2023-04-24T09:14:19;9.80;99.90
62573;DHT22;48626;51.678;5.806;2023-04-24T09:16:45;9.80;99.90
62573;DHT22;48626;51.678;5.806;2023-04-24T09:19:11;9.90;99.90
62573;DHT22;48626;51.678;5.806;2023-04-24T09:21:38;9.90;99.90
62573;DHT22;48626;51.678;5.806;2023-04-24T09:24:07;9.90;99.90
62573;DHT22;48626;51.678;5.806;2023-04-24T09:26:35;10.00;99.90
62573;DHT22;48626;51.678;5.806;2023-04-24T09:29:03;10.10;99.90
62573;DHT22;48626;51.678;5.806;2023-04-24T09:31:29;10.30;99.90
62573;DHT22;48626;51.678;5.806;2023-04-24T09:33:57;10.40;99.90
62573;DHT22;48626;51.678;5.806;2023-04-24T09:36:30;10.40;99.90
62573;DHT22;48626;51.678;5.806;2023-04-24T09:39:01;10.30;99.90
62573;DHT22;48626;51.678;5.806;2023-04-24T09:41:28;10.30;99.90
62573;DHT22;48626;51.678;5.806;2023-04-24T09:43:57;10.30;99.90
62573;DHT22;48626;51.678;5.806;2023-04-24T09:46:33;10.50;99.90
62573;DHT22;48626;51.678;5.806;2023-04-24T09:49:08;10.60;99.90
62573;DHT22;48626;51.678;5.806;2023-04-24T09:51:35;10.90;99.90
62573;DHT22;48626;51.678;5.806;2023-04-24T09:54:10;11.00;99.90
62573;DHT22;48626;51.678;5.806;2023-04-24T09:56:42;11.10;99.90
62573;DHT22;48626;51.678;5.806;2023-04-24T09:59:11;11.20;99.90
62573;DHT22;48626;51.678;5.806;2023-04-24T10:01:36;11.20;99.90
62573;DHT22;48626;51.678;5.806;2023-04-24T10:04:04;11.20;99.90
62573;DHT22;48626;51.678;5.806;2023-04-24T10:06:34;11.20;99.90
62573;DHT22;48626;51.678;5.806;2023-04-24T10:09:01;11.40;99.90
62573;DHT22;48626;51.678;5.806;2023-04-24T10:11:28;11.50;99.90
62573;DHT22;48626;51.678;5.806;2023-04-24T10:13:54;11.50;99.90
62573;DHT22;48626;51.678;5.806;2023-04-24T10:16:21;11.40;99.90
62573;DHT22;48626;51.678;5.806;2023-04-24T10:18:49;11.40;99.90
62573;DHT22;48626;51.678;5.806;2023-04-24T10:21:17;11.40;99.90
62573;DHT22;48626;51.678;5.806;2023-04-24T10:23:43;11.40;99.90
62573;DHT22;48626;51.678;5.806;2023-04-24T10:26:12;11.30;99.90
62573;DHT22;48626;51.678;5.806;2023-04-24T10:28:45;11.30;99.90
62573;DHT22;48626;51.678;5.806;2023-04-24T10:31:13;11.30;99.90
62573;DHT22;48626;51.678;5.806;2023-04-24T10:33:41;11.30;99.90
62573;DHT22;48626;51.678;5.806;2023-04-24T10:36:11;11.20;99.90
62573;DHT22;48626;51.678;5.806;2023-04-24T10:38:40;11.20;99.90
62573;DHT22;48626;51.678;5.806;2023-04-24T10:41:09;11.30;99.90
62573;DHT22;48626;51.678;5.806;2023-04-24T10:43:35;11.50;99.90
62573;DHT22;48626;51.678;5.806;2023-04-24T10:46:03;11.60;99.90
62573;DHT22;48626;51.678;5.806;2023-04-24T10:48:30;11.70;99.90
62573;DHT22;48626;51.678;5.806;2023-04-24T10:50:56;11.70;99.90
62573;DHT22;48626;51.678;5.806;2023-04-24T10:53:28;11.70;99.90
62573;DHT22;48626;51.678;5.806;2023-04-24T10:56:06;11.60;99.90
62573;DHT22;48626;51.678;5.806;2023-04-24T10:58:49;11.50;99.90
62573;DHT22;48626;51.678;5.806;2023-04-24T11:01:29;11.40;99.90
62573;DHT22;48626;51.678;5.806;2023-04-24T11:03:58;11.30;99.90
62573;DHT22;48626;51.678;5.806;2023-04-24T11:06:34;11.20;99.90
62573;DHT22;48626;51.678;5.806;2023-04-24T11:09:07;11.30;99.90
62573;DHT22;48626;51.678;5.806;2023-04-24T11:11:37;11.50;99.90
62573;DHT22;48626;51.678;5.806;2023-04-24T11:14:07;11.90;99.90
62573;DHT22;48626;51.678;5.806;2023-04-24T11:16:43;12.40;99.90
62573;DHT22;48626;51.678;5.806;2023-04-24T11:21:48;13.00;99.90
62573;DHT22;48626;51.678;5.806;2023-04-24T11:27:14;12.70;99.90
62573;DHT22;48626;51.678;5.806;2023-04-24T11:29:46;12.60;99.90
62573;DHT22;48626;51.678;5.806;2023-04-24T11:34:55;12.40;99.90
62573;DHT22;48626;51.678;5.806;2023-04-24T11:37:24;12.40;99.90
62573;DHT22;48626;51.678;5.806;2023-04-24T11:39:57;12.40;99.90
62573;DHT22;48626;51.678;5.806;2023-04-24T11:42:24;12.30;99.90
62573;DHT22;48626;51.678;5.806;2023-04-24T11:44:54;12.20;99.90
62573;DHT22;48626;51.678;5.806;2023-04-24T11:47:30;12.10;99.90
62573;DHT22;48626;51.678;5.806;2023-04-24T11:49:56;12.00;99.90
62573;DHT22;48626;51.678;5.806;2023-04-24T11:52:22;11.90;99.90
62573;DHT22;48626;51.678;5.806;2023-04-24T11:54:49;11.90;99.90
62573;DHT22;48626;51.678;5.806;2023-04-24T11:57:16;11.70;99.90
62573;DHT22;48626;51.678;5.806;2023-04-24T11:59:41;11.60;99.90
62573;DHT22;48626;51.678;5.806;2023-04-24T12:02:07;11.50;99.90
62573;DHT22;48626;51.678;5.806;2023-04-24T12:04:42;11.50;99.90
62573;DHT22;48626;51.678;5.806;2023-04-24T12:07:08;11.50;99.90
62573;DHT22;48626;51.678;5.806;2023-04-24T12:09:44;11.40;99.90
62573;DHT22;48626;51.678;5.806;2023-04-24T12:12:12;11.40;99.90
62573;DHT22;48626;51.678;5.806;2023-04-24T12:14:55;11.40;99.90
62573;DHT22;48626;51.678;5.806;2023-04-24T12:17:26;11.40;99.90
62573;DHT22;48626;51.678;5.806;2023-04-24T12:19:56;11.50;99.90
62573;DHT22;48626;51.678;5.806;2023-04-24T12:22:22;11.60;99.90
62573;DHT22;48626;51.678;5.806;2023-04-24T12:25:04;11.80;99.90
62573;DHT22;48626;51.678;5.806;2023-04-24T12:27:32;12.10;99.90
62573;DHT22;48626;51.678;5.806;2023-04-24T12:30:09;12.60;99.90
62573;DHT22;48626;51.678;5.806;2023-04-24T12:32:35;12.90;99.90
62573;DHT22;48626;51.678;5.806;2023-04-24T12:35:00;13.50;99.90
62573;DHT22;48626;51.678;5.806;2023-04-24T12:37:33;13.60;99.90
62573;DHT22;48626;51.678;5.806;2023-04-24T12:42:34;13.50;99.90
62573;DHT22;48626;51.678;5.806;2023-04-24T12:45:05;13.40;99.90
62573;DHT22;48626;51.678;5.806;2023-04-24T12:47:32;13.50;99.90
62573;DHT22;48626;51.678;5.806;2023-04-24T12:49:58;13.40;99.90
62573;DHT22;48626;51.678;5.806;2023-04-24T12:52:29;13.30;99.90
62573;DHT22;48626;51.678;5.806;2023-04-24T12:54:59;13.10;99.90
62573;DHT22;48626;51.678;5.806;2023-04-24T12:57:27;12.90;99.90
62573;DHT22;48626;51.678;5.806;2023-04-24T12:59:58;12.60;99.90
62573;DHT22;48626;51.678;5.806;2023-04-24T13:02:25;12.30;99.90
62573;DHT22;48626;51.678;5.806;2023-04-24T13:04:52;12.00;99.90
62573;DHT22;48626;51.678;5.806;2023-04-24T13:07:17;11.90;99.90
62573;DHT22;48626;51.678;5.806;2023-04-24T13:09:44;12.00;99.90
62573;DHT22;48626;51.678;5.806;2023-04-24T13:12:11;12.30;99.90
62573;DHT22;48626;51.678;5.806;2023-04-24T13:14:37;12.60;99.90
62573;DHT22;48626;51.678;5.806;2023-04-24T13:17:03;12.70;99.90
62573;DHT22;48626;51.678;5.806;2023-04-24T13:19:34;12.80;99.90
62573;DHT22;48626;51.678;5.806;2023-04-24T13:22:01;12.80;99.90
62573;DHT22;48626;51.678;5.806;2023-04-24T13:24:26;12.80;99.90
62573;DHT22;48626;51.678;5.806;2023-04-24T13:26:53;12.80;99.90
62573;DHT22;48626;51.678;5.806;2023-04-24T13:29:19;12.70;99.90
62573;DHT22;48626;51.678;5.806;2023-04-24T13:31:46;13.00;99.90
62573;DHT22;48626;51.678;5.806;2023-04-24T13:34:13;13.70;99.90
62573;DHT22;48626;51.678;5.806;2023-04-24T13:36:38;15.00;99.90
62573;DHT22;48626;51.678;5.806;2023-04-24T13:39:05;16.20;99.90
62573;DHT22;48626;51.678;5.806;2023-04-24T13:41:35;16.50;99.90
62573;DHT22;48626;51.678;5.806;2023-04-24T13:44:02;16.40;99.90
62573;DHT22;48626;51.678;5.806;2023-04-24T13:46:27;16.80;99.90
62573;DHT22;48626;51.678;5.806;2023-04-24T13:48:53;17.20;99.90
62573;DHT22;48626;51.678;5.806;2023-04-24T13:51:19;17.20;99.90
62573;DHT22;48626;51.678;5.806;2023-04-24T13:53:45;16.90;99.90
62573;DHT22;48626;51.678;5.806;2023-04-24T13:56:10;16.40;99.90
62573;DHT22;48626;51.678;5.806;2023-04-24T13:58:38;15.90;99.90
62573;DHT22;48626;51.678;5.806;2023-04-24T14:01:04;15.40;99.90
62573;DHT22;48626;51.678;5.806;2023-04-24T14:03:29;15.10;99.90
62573;DHT22;48626;51.678;5.806;2023-04-24T14:05:56;14.70;99.90
62573;DHT22;48626;51.678;5.806;2023-04-24T14:08:22;14.30;99.90
62573;DHT22;48626;51.678;5.806;2023-04-24T14:10:48;13.70;99.90
62573;DHT22;48626;51.678;5.806;2023-04-24T14:13:14;13.30;99.90
62573;DHT22;48626;51.678;5.806;2023-04-24T14:15:40;13.30;99.90
62573;DHT22;48626;51.678;5.806;2023-04-24T14:18:06;13.40;99.90
62573;DHT22;48626;51.678;5.806;2023-04-24T14:20:32;13.50;99.90
62573;DHT22;48626;51.678;5.806;2023-04-24T14:22:58;13.40;99.90
62573;DHT22;48626;51.678;5.806;2023-04-24T14:25:25;13.10;99.90
62573;DHT22;48626;51.678;5.806;2023-04-24T14:27:51;13.10;99.90
62573;DHT22;48626;51.678;5.806;2023-04-24T14:30:17;13.10;99.90
62573;DHT22;48626;51.678;5.806;2023-04-24T14:32:43;13.20;99.90
62573;DHT22;48626;51.678;5.806;2023-04-24T14:35:08;13.30;99.90
62573;DHT22;48626;51.678;5.806;2023-04-24T14:37:36;13.40;99.90
62573;DHT22;48626;51.678;5.806;2023-04-24T14:40:02;13.30;99.90
62573;DHT22;48626;51.678;5.806;2023-04-24T14:42:28;13.30;99.90
62573;DHT22;48626;51.678;5.806;2023-04-24T14:44:54;13.10;99.90
62573;DHT22;48626;51.678;5.806;2023-04-24T14:47:20;13.10;99.90
62573;DHT22;48626;51.678;5.806;2023-04-24T14:49:47;13.10;99.90
62573;DHT22;48626;51.678;5.806;2023-04-24T14:52:13;13.10;99.90
62573;DHT22;48626;51.678;5.806;2023-04-24T14:54:39;13.10;99.90
62573;DHT22;48626;51.678;5.806;2023-04-24T14:57:05;13.20;99.90
62573;DHT22;48626;51.678;5.806;2023-04-24T14:59:31;13.90;99.90
62573;DHT22;48626;51.678;5.806;2023-04-24T15:01:57;13.90;99.90
62573;DHT22;48626;51.678;5.806;2023-04-24T15:04:27;13.80;99.90
62573;DHT22;48626;51.678;5.806;2023-04-24T15:06:53;13.50;99.90
62573;DHT22;48626;51.678;5.806;2023-04-24T15:09:20;13.30;99.90
62573;DHT22;48626;51.678;5.806;2023-04-24T15:11:47;13.00;99.90
62573;DHT22;48626;51.678;5.806;2023-04-24T15:14:14;12.70;99.90
62573;DHT22;48626;51.678;5.806;2023-04-24T15:16:40;12.10;99.90
62573;DHT22;48626;51.678;5.806;2023-04-24T15:19:06;11.60;99.90
62573;DHT22;48626;51.678;5.806;2023-04-24T15:21:31;11.10;99.90
62573;DHT22;48626;51.678;5.806;2023-04-24T15:23:57;10.80;99.90
62573;DHT22;48626;51.678;5.806;2023-04-24T15:26:23;10.60;99.90
62573;DHT22;48626;51.678;5.806;2023-04-24T15:28:49;10.60;99.90
62573;DHT22;48626;51.678;5.806;2023-04-24T15:31:17;10.60;99.90
62573;DHT22;48626;51.678;5.806;2023-04-24T15:33:43;10.70;99.90
62573;DHT22;48626;51.678;5.806;2023-04-24T15:36:09;10.90;99.90
62573;DHT22;48626;51.678;5.806;2023-04-24T15:38:35;11.80;99.90
62573;DHT22;48626;51.678;5.806;2023-04-24T15:41:00;13.30;99.90
62573;DHT22;48626;51.678;5.806;2023-04-24T15:43:26;14.00;99.90